Fallon, NV

3:27 PM PST on February 27, 2015 (GMT -0800)
Reno-Tahoe International | Change Station
CLOSE
Current Station
Airport
Location: Reno,
Elevation: 4400 ft
Nearby Weather Stations

Elev 4400 ft 39.51 °N, 119.77 °W | Updated 32 minutes ago

Mostly Cloudy
Mostly Cloudy
52 °F
Feels Like 52 °F
N
21
Wind Variable Wind from West
Gusts 26 mph

Today
High -- | Low -- °F
--% Chance of Precip.
Yesterday
High -- | Low -- °F
Precip. -- in
6:31 AM 5:45 PM
Waxing Gibbous, 72% visible
Pressure 29.56 in
Visibility 10.0 miles
Clouds Few 5500 ft
Scattered Clouds 8000 ft
Mostly Cloudy 11000 ft
Dew Point 23 °F
Humidity 32%
Rainfall 0.00 in
Snow Depth Not available.
UV 2 out of 12
Pollen 5.40 out of 12
Air Quality Not available.
Flu Activity Not available.
METAR KRNO 272255Z 27018G23KT 10SM FEW055 SCT080 BKN110 11/M05 A2961 RMK AO2 SLP009 VIRGA VCSH SW SH DSNT N-NE MTN TOPS OBSCD DSNT SW T01111050

More Conditions Fewer Conditions

Pressure 29.56 in
Visibility 10.0 miles
Clouds Few 5500 ft
Scattered Clouds 8000 ft
Mostly Cloudy 11000 ft
Dew Point 23 °F
Humidity 32%
Rainfall 0.00 in
Snow Depth Not available.
UV 2 out of 12
Pollen 5.40 out of 12
Air Quality Not available.
Flu Activity Not available.
METAR KRNO 272255Z 27018G23KT 10SM FEW055 SCT080 BKN110 11/M05 A2961 RMK AO2 SLP009 VIRGA VCSH SW SH DSNT N-NE MTN TOPS OBSCD DSNT SW T01111050

More Conditions Fewer Conditions

10-Day Weather Forecast

Almanac

Astronomy

Feb. 27, 2015 Rise Set
Actual Time
Civil Twilight
Nautical Twilight
Astronomical Twilight
Moon
Length of Visible Light
Length of Day
Tomorrow will be .
, % of the Moon is Illuminated

Today's Extremes

State Highs State Lows

Community

WunderPhotos

Upload Photos

1,800,876 photos uploaded!

WunderBlogs® & News

Nearby

Air Quality

  Air Quality AQ Index Pollutant
Not available.

Snow Depth

Station Depth Elevation

Earthquake Activity

City Distance Mag. Time & Date
Minimum magnitude displayed is 2.5.

Coastal Water Temperatures

Place Temperature

Nearby Weather Stations